»·PEaware :: UAL2061 KSFO-KLAS

UAL2061 :: KSFO-KLAS

FLIGHT INFORMATION

Flight Status: Arrived
Operator:
United Airlines
More flights by this operator :: More flights under this callsign
Pilot: Josh T. (20631)
Aircraft: AIRBUS A320
(A320)
More flights by this aircraft type
Origin: KSFO San Francisco Intl
United States
Destination: KLAS McCarran Intl
United States
More flights between these airports :: More routes between these airports
Route: WESLA4 NTELL Q162 ESSAA BTY SUNST4
File this flight plan on PilotEdge
Remarks:
Altitude:
(Current/Filed)
31,000ft
Speed:
(Current/Filed)
445kts
Departed: 02-Feb-20 06:49 PM
Arrived: 02-Feb-20 07:57 PM
Distance/Time
Traveled:
359nm/1:07
Distance/Time
To Go:
Arrived

Flight Plot

Page will automatically refresh every two minutes.

Flight plan parsing failed; only flown route is shown


Map Options




Map Legend


Flown Route
Filed Route
Departure Airport
Arrival Airport
Navaid (VOR, NDB)
Fix

Horizontal Profiles

Position Reports

Time Latitude Longitude Heading Altitude Ground
Speed
02-Feb-20 17:55 37.619592 -122.383543 252 27ft 0kts
02-Feb-20 17:56 37.619592 -122.383543 252 27ft 0kts
02-Feb-20 17:57 37.619592 -122.383543 252 27ft 0kts
02-Feb-20 17:58 37.619592 -122.383543 252 27ft 0kts
02-Feb-20 17:59 37.619592 -122.383543 252 27ft 0kts
02-Feb-20 18:00 37.619592 -122.383543 252 27ft 0kts
02-Feb-20 18:01 37.619592 -122.383543 252 27ft 0kts
02-Feb-20 18:02 37.619592 -122.383543 252 27ft 0kts
02-Feb-20 18:03 37.619592 -122.383543 252 27ft 0kts
02-Feb-20 18:04 37.619592 -122.383543 252 27ft 0kts
02-Feb-20 18:05 37.619592 -122.383543 252 27ft 0kts
02-Feb-20 18:06 37.619592 -122.383543 252 27ft 0kts
02-Feb-20 18:07 37.619592 -122.383543 252 27ft 0kts
02-Feb-20 18:08 37.619592 -122.383543 252 27ft 0kts
02-Feb-20 18:09 37.619592 -122.383543 252 27ft 0kts
02-Feb-20 18:10 37.619592 -122.383543 252 27ft 0kts
02-Feb-20 18:11 37.619592 -122.383543 252 27ft 0kts
02-Feb-20 18:12 37.619592 -122.383543 252 27ft 0kts
02-Feb-20 18:13 37.619592 -122.383543 252 27ft 0kts
02-Feb-20 18:14 37.619592 -122.383543 252 27ft 0kts
02-Feb-20 18:15 37.619592 -122.383543 252 27ft 0kts
02-Feb-20 18:16 37.619592 -122.383543 252 27ft 0kts
02-Feb-20 18:17 37.619592 -122.383543 252 27ft 0kts
02-Feb-20 18:18 37.619592 -122.383543 252 27ft 0kts
02-Feb-20 18:19 37.619592 -122.383543 252 27ft 0kts
02-Feb-20 18:20 37.619592 -122.383543 252 27ft 0kts
02-Feb-20 18:21 37.619592 -122.383543 252 27ft 0kts
02-Feb-20 18:22 37.619592 -122.383543 252 27ft 0kts
02-Feb-20 18:23 37.619592 -122.383543 252 27ft 0kts
02-Feb-20 18:24 37.619592 -122.383543 252 27ft 0kts
02-Feb-20 18:25 37.619592 -122.383543 252 27ft 0kts
02-Feb-20 18:26 37.619592 -122.383543 252 27ft 0kts
02-Feb-20 18:27 37.619592 -122.383543 252 27ft 0kts
02-Feb-20 18:28 37.619592 -122.383543 252 27ft 0kts
02-Feb-20 18:29 37.619608 -122.383475 248 27ft 2kts
02-Feb-20 18:30 37.620222 -122.383392 127 27ft 2kts
02-Feb-20 18:31 37.620269 -122.383473 116 27ft 0kts
02-Feb-20 18:32 37.620268 -122.383472 116 27ft 0kts
02-Feb-20 18:33 37.620268 -122.383471 116 27ft 0kts
02-Feb-20 18:34 37.620268 -122.383470 116 27ft 0kts
02-Feb-20 18:35 37.620267 -122.383469 116 27ft 0kts
02-Feb-20 18:36 37.619946 -122.382691 118 27ft 8kts
02-Feb-20 18:37 37.618814 -122.379991 116 27ft 8kts
02-Feb-20 18:38 37.617649 -122.376515 109 27ft 12kts
02-Feb-20 18:39 37.616370 -122.373120 122 27ft 11kts
02-Feb-20 18:40 37.614202 -122.368511 133 27ft 19kts
02-Feb-20 18:41 37.611978 -122.363693 114 27ft 19kts
02-Feb-20 18:42 37.610703 -122.359241 48 27ft 5kts
02-Feb-20 18:43 37.610925 -122.359028 28 27ft 0kts
02-Feb-20 18:44 37.610925 -122.359028 28 27ft 0kts
02-Feb-20 18:45 37.610925 -122.359028 28 27ft 0kts
02-Feb-20 18:46 37.611113 -122.358898 28 27ft 5kts
02-Feb-20 18:47 37.611922 -122.358723 296 27ft 3kts
02-Feb-20 18:48 37.624421 -122.388826 295 1007ft 155kts
02-Feb-20 18:49 37.647633 -122.442376 302 2910ft 207kts
02-Feb-20 18:50 37.671595 -122.512613 268 5655ft 250kts
02-Feb-20 18:51 37.609602 -122.546694 152 8589ft 307kts
02-Feb-20 18:52 37.530883 -122.495581 161 10828ft 343kts
02-Feb-20 18:53 37.453334 -122.415639 120 12269ft 396kts
02-Feb-20 18:54 37.399974 -122.288332 100 13929ft 422kts
02-Feb-20 18:55 37.372917 -122.140144 99 15660ft 447kts
02-Feb-20 18:56 37.340998 -121.985180 101 17288ft 470kts
02-Feb-20 18:57 37.308494 -121.821971 102 18978ft 488kts
02-Feb-20 18:58 37.274539 -121.655508 102 20731ft 498kts
02-Feb-20 18:59 37.239732 -121.485087 103 22318ft 508kts
02-Feb-20 19:00 37.204089 -121.312357 103 23736ft 517kts
02-Feb-20 19:01 37.167481 -121.136040 104 25051ft 526kts
02-Feb-20 19:02 37.129963 -120.957335 105 26275ft 533kts
02-Feb-20 19:03 37.091830 -120.776641 106 27407ft 541kts
02-Feb-20 19:04 37.052776 -120.593437 107 28668ft 543kts
02-Feb-20 19:05 37.013670 -120.411603 107 30045ft 540kts
02-Feb-20 19:06 36.974603 -120.231139 107 31113ft 537kts
02-Feb-20 19:07 36.934883 -120.049281 107 31125ft 549kts
02-Feb-20 19:08 36.912214 -119.860927 78 31098ft 554kts
02-Feb-20 19:09 36.967842 -119.684037 63 31130ft 548kts
02-Feb-20 19:10 37.024394 -119.506984 62 31109ft 545kts
02-Feb-20 19:11 37.081833 -119.331325 62 31075ft 547kts
02-Feb-20 19:12 37.138549 -119.154108 62 31035ft 547kts
02-Feb-20 19:13 37.195327 -118.976894 63 30953ft 547kts
02-Feb-20 19:14 37.251560 -118.799688 63 30869ft 547kts
02-Feb-20 19:15 37.287703 -118.613585 82 30790ft 555kts
02-Feb-20 19:16 37.304032 -118.419247 81 30778ft 564kts
02-Feb-20 19:17 37.322094 -118.222554 83 30764ft 567kts
02-Feb-20 19:18 37.339409 -118.026310 83 30783ft 567kts
02-Feb-20 19:19 37.345982 -117.828645 98 30730ft 564kts
02-Feb-20 19:20 37.327328 -117.633246 99 30767ft 563kts
02-Feb-20 19:21 37.310204 -117.437966 99 30742ft 562kts
02-Feb-20 19:22 37.266804 -117.255658 133 30694ft 533kts
02-Feb-20 19:23 37.175677 -117.110500 135 30623ft 530kts
02-Feb-20 19:24 37.086734 -116.963486 138 30580ft 523kts
02-Feb-20 19:25 36.973203 -116.866858 162 30569ft 484kts
02-Feb-20 19:26 36.854068 -116.785113 160 30563ft 489kts
02-Feb-20 19:27 36.750966 -116.679522 139 29291ft 483kts
02-Feb-20 19:28 36.664284 -116.552638 140 27039ft 476kts
02-Feb-20 19:29 36.576928 -116.429489 138 24794ft 470kts
02-Feb-20 19:30 36.491649 -116.308890 138 22571ft 460kts
02-Feb-20 19:31 36.423108 -116.212099 138 20760ft 450kts
02-Feb-20 19:35 36.187003 -115.864251 118 15979ft 375kts
02-Feb-20 19:36 36.150697 -115.743461 117 14452ft 369kts
02-Feb-20 19:37 36.112920 -115.628256 118 13314ft 355kts
02-Feb-20 19:38 36.080919 -115.528786 118 12417ft 345kts
02-Feb-20 19:39 36.045848 -115.420839 118 11595ft 325kts
02-Feb-20 19:40 36.025961 -115.314083 98 10527ft 322kts
02-Feb-20 19:41 36.018761 -115.207165 102 9499ft 306kts
02-Feb-20 19:42 36.011498 -115.107081 102 8898ft 276kts
02-Feb-20 19:43 36.005938 -115.015521 102 8047ft 261kts
02-Feb-20 19:44 36.000611 -114.927140 102 8009ft 258kts
02-Feb-20 19:45 35.995294 -114.839419 103 8002ft 255kts
02-Feb-20 19:46 35.989626 -114.752152 103 8000ft 254kts
02-Feb-20 19:47 35.996688 -114.670209 48 7870ft 244kts
02-Feb-20 19:48 36.050255 -114.677212 293 6699ft 198kts
02-Feb-20 19:49 36.073915 -114.734994 258 6007ft 175kts
02-Feb-20 19:50 36.073932 -114.794961 258 5996ft 173kts
02-Feb-20 19:51 36.073839 -114.855238 259 5919ft 185kts
02-Feb-20 19:52 36.073834 -114.920275 261 5162ft 189kts
02-Feb-20 19:53 36.073767 -114.984046 261 4429ft 181kts
02-Feb-20 19:53 36.073746 -115.036172 263 3645ft 182kts
02-Feb-20 19:55 36.073700 -115.099474 263 2655ft 145kts
02-Feb-20 19:56 36.073653 -115.143578 267 2195ft 69kts
02-Feb-20 19:56 36.074798 -115.150688 301 2195ft 7kts
02-Feb-20 19:58 36.075591 -115.151499 332 2195ft 13kts
02-Feb-20 19:59 36.078785 -115.153272 25 2195ft 4kts
02-Feb-20 19:59 36.078774 -115.151210 90 2195ft 11kts
02-Feb-20 20:00 36.078408 -115.145418 95 2195ft 22kts
02-Feb-20 20:02 36.078706 -115.139686 38 2195ft 7kts
02-Feb-20 20:02 36.079551 -115.139539 352 2195ft 5kts
02-Feb-20 20:03 36.079908 -115.139601 351 2195ft 0kts
02-Feb-20 20:04 36.079908 -115.139601 351 2195ft 0kts

Navigation Log

Ident Type
Flight plan parsing failed, navigation log unavailable